WAT4168 KSGF-KCLE
Flight info
| Callsign | WAT4168 |
|---|---|
| Flight time | 1h 32m |
| Altitude | 39000 |
| Route | ENL DRUGA ROKNN4 |
| Aircraft | B738/M-SDE2E3FGHIRWXY/LB1 |
Departure
| Time | 2026-05-07 15:32 |
|---|---|
| Airport | Springfield Branson National Airport (KSGF) |
Arrival
| Time | 2026-05-07 17:04 |
|---|---|
| Airport | Cleveland Hopkins International Airport (KCLE) |
| Time | Latitude | Longitude | Altitude | Speed | Heading |
|---|---|---|---|---|---|
| 2026-05-07 14:52 | 37.24104 | -93.39665 | 1265 ft | 0 kts | 158° |
| 2026-05-07 15:19 | 37.24107 | -93.39667 | 1265 ft | 2 kts | 158° |
| 2026-05-07 15:20 | 37.24120 | -93.39674 | 1264 ft | 2 kts | 157° |
| 2026-05-07 15:20 | 37.24129 | -93.39679 | 1264 ft | 2 kts | 158° |
| 2026-05-07 15:20 | 37.24140 | -93.39691 | 1264 ft | 2 kts | 111° |
| 2026-05-07 15:20 | 37.24142 | -93.39709 | 1264 ft | 1 kts | 74° |
| 2026-05-07 15:21 | 37.24139 | -93.39717 | 1264 ft | 1 kts | 62° |
| 2026-05-07 15:21 | 37.24138 | -93.39721 | 1264 ft | 0 kts | 66° |
| 2026-05-07 15:24 | 37.24140 | -93.39713 | 1264 ft | 3 kts | 72° |
| 2026-05-07 15:25 | 37.24150 | -93.39632 | 1264 ft | 10 kts | 84° |
| 2026-05-07 15:25 | 37.24147 | -93.39537 | 1263 ft | 11 kts | 104° |
| 2026-05-07 15:25 | 37.24131 | -93.39445 | 1263 ft | 10 kts | 85° |
| 2026-05-07 15:25 | 37.24180 | -93.39347 | 1263 ft | 16 kts | 70° |
| 2026-05-07 15:26 | 37.24155 | -93.39208 | 1264 ft | 15 kts | 112° |
| 2026-05-07 15:26 | 37.24124 | -93.39108 | 1265 ft | 10 kts | 111° |
| 2026-05-07 15:26 | 37.24102 | -93.39031 | 1266 ft | 8 kts | 103° |
| 2026-05-07 15:26 | 37.24116 | -93.38966 | 1266 ft | 7 kts | 66° |
| 2026-05-07 15:27 | 37.24133 | -93.38959 | 1266 ft | 3 kts | 230° |
| 2026-05-07 15:27 | 37.24103 | -93.38955 | 1267 ft | 4 kts | 140° |
| 2026-05-07 15:27 | 37.24083 | -93.38930 | 1267 ft | 0 kts | 135° |
| 2026-05-07 15:28 | 37.24087 | -93.38890 | 1267 ft | 10 kts | 47° |
| 2026-05-07 15:28 | 37.24146 | -93.38844 | 1267 ft | 8 kts | 27° |
| 2026-05-07 15:28 | 37.24211 | -93.38794 | 1267 ft | 20 kts | 33° |
| 2026-05-07 15:28 | 37.24326 | -93.38707 | 1267 ft | 11 kts | 29° |
| 2026-05-07 15:29 | 37.24420 | -93.38647 | 1267 ft | 21 kts | 19° |
| 2026-05-07 15:29 | 37.24560 | -93.38576 | 1267 ft | 21 kts | 23° |
| 2026-05-07 15:29 | 37.24700 | -93.38506 | 1266 ft | 21 kts | 24° |
| 2026-05-07 15:29 | 37.24841 | -93.38435 | 1265 ft | 21 kts | 20° |
| 2026-05-07 15:30 | 37.24980 | -93.38367 | 1264 ft | 21 kts | 24° |
| 2026-05-07 15:30 | 37.25115 | -93.38299 | 1264 ft | 16 kts | 19° |
| 2026-05-07 15:30 | 37.25220 | -93.38246 | 1263 ft | 16 kts | 23° |
| 2026-05-07 15:30 | 37.25313 | -93.38201 | 1263 ft | 12 kts | 20° |
| 2026-05-07 15:31 | 37.25365 | -93.38110 | 1262 ft | 18 kts | 123° |
| 2026-05-07 15:31 | 37.25308 | -93.38045 | 1263 ft | 14 kts | 197° |
| 2026-05-07 15:31 | 37.25068 | -93.38164 | 1264 ft | 79 kts | 201° |
| 2026-05-07 15:31 | 37.24277 | -93.38551 | 1318 ft | 157 kts | 200° |
| 2026-05-07 15:32 | 37.23302 | -93.39052 | 2301 ft | 160 kts | 203° |
| 2026-05-07 15:32 | 37.22212 | -93.39578 | 2965 ft | 178 kts | 201° |
| 2026-05-07 15:32 | 37.20988 | -93.40126 | 3657 ft | 196 kts | 200° |
| 2026-05-07 15:32 | 37.19602 | -93.40276 | 4347 ft | 217 kts | 166° |
| 2026-05-07 15:33 | 37.18323 | -93.39203 | 5110 ft | 235 kts | 126° |
| 2026-05-07 15:33 | 37.17770 | -93.37243 | 5850 ft | 252 kts | 91° |
| 2026-05-07 15:33 | 37.18103 | -93.35087 | 6618 ft | 265 kts | 68° |
| 2026-05-07 15:33 | 37.18818 | -93.32879 | 7354 ft | 282 kts | 64° |
| 2026-05-07 15:34 | 37.19601 | -93.30598 | 8302 ft | 291 kts | 64° |
| 2026-05-07 15:34 | 37.20389 | -93.28230 | 9297 ft | 298 kts | 65° |
| 2026-05-07 15:34 | 37.21169 | -93.25811 | 10230 ft | 306 kts | 65° |
| 2026-05-07 15:34 | 37.21968 | -93.23305 | 10893 ft | 323 kts | 65° |
| 2026-05-07 15:35 | 37.22819 | -93.20624 | 11544 ft | 340 kts | 65° |
| 2026-05-07 15:35 | 37.23713 | -93.17802 | 12132 ft | 358 kts | 65° |
| 2026-05-07 15:35 | 37.24656 | -93.14824 | 12714 ft | 375 kts | 65° |
| 2026-05-07 15:35 | 37.25639 | -93.11716 | 13275 ft | 392 kts | 65° |
| 2026-05-07 15:36 | 37.26644 | -93.08524 | 14126 ft | 399 kts | 65° |
| 2026-05-07 15:36 | 37.27665 | -93.05277 | 14983 ft | 406 kts | 64° |
| 2026-05-07 15:36 | 37.28703 | -93.01971 | 15848 ft | 411 kts | 64° |
| 2026-05-07 15:36 | 37.29750 | -92.98637 | 16668 ft | 417 kts | 64° |
| 2026-05-07 15:37 | 37.30809 | -92.95260 | 17429 ft | 424 kts | 64° |
| 2026-05-07 15:37 | 37.31899 | -92.91782 | 18202 ft | 430 kts | 64° |
| 2026-05-07 15:37 | 37.32988 | -92.88308 | 18921 ft | 436 kts | 64° |
| 2026-05-07 15:37 | 37.34113 | -92.84713 | 19660 ft | 442 kts | 64° |
| 2026-05-07 15:38 | 37.35229 | -92.81144 | 20365 ft | 447 kts | 64° |
| 2026-05-07 15:38 | 37.36370 | -92.77494 | 20983 ft | 455 kts | 64° |
| 2026-05-07 15:38 | 37.37524 | -92.73794 | 21645 ft | 460 kts | 64° |
| 2026-05-07 15:38 | 37.38698 | -92.70026 | 22289 ft | 466 kts | 64° |
| 2026-05-07 15:39 | 37.39878 | -92.66232 | 22883 ft | 472 kts | 64° |
| 2026-05-07 15:39 | 37.41069 | -92.62394 | 23502 ft | 477 kts | 64° |
| 2026-05-07 15:39 | 37.42276 | -92.58498 | 24146 ft | 481 kts | 64° |
| 2026-05-07 15:39 | 37.43502 | -92.54540 | 24720 ft | 487 kts | 64° |
| 2026-05-07 15:40 | 37.44732 | -92.50559 | 25336 ft | 491 kts | 64° |
| 2026-05-07 15:40 | 37.45969 | -92.46551 | 25925 ft | 496 kts | 64° |
| 2026-05-07 15:40 | 37.47210 | -92.42521 | 26446 ft | 502 kts | 64° |
| 2026-05-07 15:40 | 37.48479 | -92.38397 | 27012 ft | 506 kts | 64° |
| 2026-05-07 15:41 | 37.49738 | -92.34300 | 27647 ft | 508 kts | 65° |
| 2026-05-07 15:41 | 37.51014 | -92.30136 | 28388 ft | 506 kts | 65° |
| 2026-05-07 15:41 | 37.52291 | -92.25959 | 29049 ft | 507 kts | 65° |
| 2026-05-07 15:41 | 37.53566 | -92.21787 | 29718 ft | 506 kts | 65° |
| 2026-05-07 15:42 | 37.54819 | -92.17680 | 30296 ft | 506 kts | 65° |
| 2026-05-07 15:42 | 37.56077 | -92.13559 | 30618 ft | 512 kts | 65° |
| 2026-05-07 15:42 | 37.57360 | -92.09353 | 31087 ft | 514 kts | 65° |
| 2026-05-07 15:42 | 37.58648 | -92.05120 | 31517 ft | 517 kts | 65° |
| 2026-05-07 15:43 | 37.59924 | -92.00922 | 31959 ft | 519 kts | 65° |
| 2026-05-07 15:43 | 37.61205 | -91.96696 | 32393 ft | 521 kts | 65° |
| 2026-05-07 15:43 | 37.62500 | -91.92417 | 32786 ft | 524 kts | 65° |
| 2026-05-07 15:43 | 37.63800 | -91.88116 | 33130 ft | 528 kts | 65° |
| 2026-05-07 15:44 | 37.65095 | -91.83830 | 33551 ft | 529 kts | 65° |
| 2026-05-07 15:44 | 37.66407 | -91.79476 | 34076 ft | 528 kts | 65° |
| 2026-05-07 15:44 | 37.67708 | -91.75155 | 34491 ft | 530 kts | 65° |
| 2026-05-07 15:44 | 37.69015 | -91.70802 | 34908 ft | 531 kts | 65° |
| 2026-05-07 15:45 | 37.70318 | -91.66457 | 35413 ft | 530 kts | 65° |
| 2026-05-07 15:45 | 37.71604 | -91.62155 | 35875 ft | 529 kts | 65° |
| 2026-05-07 15:45 | 37.72903 | -91.57801 | 36372 ft | 528 kts | 65° |
| 2026-05-07 15:45 | 37.74178 | -91.53523 | 36745 ft | 529 kts | 65° |
| 2026-05-07 15:46 | 37.76767 | -91.44831 | 37442 ft | 532 kts | 65° |
| 2026-05-07 15:46 | 37.78066 | -91.40460 | 37912 ft | 530 kts | 65° |
| 2026-05-07 15:46 | 37.79363 | -91.36083 | 38292 ft | 530 kts | 65° |
| 2026-05-07 15:47 | 37.80660 | -91.31706 | 38520 ft | 532 kts | 65° |
| 2026-05-07 15:47 | 37.81958 | -91.27319 | 38894 ft | 531 kts | 65° |
| 2026-05-07 15:47 | 37.83233 | -91.22996 | 39097 ft | 534 kts | 65° |
| 2026-05-07 15:48 | 37.85818 | -91.14223 | 39094 ft | 529 kts | 65° |
| 2026-05-07 15:48 | 37.88363 | -91.05551 | 39099 ft | 531 kts | 66° |
| 2026-05-07 15:49 | 37.90917 | -90.96822 | 39089 ft | 530 kts | 65° |
| 2026-05-07 15:49 | 37.93387 | -90.88029 | 39088 ft | 532 kts | 71° |
| 2026-05-07 15:49 | 37.94523 | -90.83620 | 39084 ft | 528 kts | 60° |
| 2026-05-07 15:50 | 37.96400 | -90.79731 | 39092 ft | 512 kts | 44° |
| 2026-05-07 15:50 | 38.01212 | -90.73299 | 39089 ft | 500 kts | 32° |
| 2026-05-07 15:51 | 38.06527 | -90.67722 | 39088 ft | 493 kts | 28° |
| 2026-05-07 15:51 | 38.11882 | -90.62309 | 39080 ft | 493 kts | 28° |
| 2026-05-07 15:52 | 38.17267 | -90.56892 | 39082 ft | 492 kts | 28° |
| 2026-05-07 15:52 | 38.22614 | -90.51506 | 39081 ft | 494 kts | 28° |
| 2026-05-07 15:53 | 38.27987 | -90.46101 | 39062 ft | 497 kts | 30° |
| 2026-05-07 15:53 | 38.30482 | -90.43027 | 39080 ft | 511 kts | 43° |
| 2026-05-07 15:53 | 38.32356 | -90.39117 | 39090 ft | 526 kts | 59° |
| 2026-05-07 15:54 | 38.34766 | -90.30241 | 39084 ft | 531 kts | 72° |
| 2026-05-07 15:54 | 38.36608 | -90.21116 | 39087 ft | 533 kts | 73° |
| 2026-05-07 15:55 | 38.38490 | -90.12066 | 39084 ft | 533 kts | 71° |
| 2026-05-07 15:55 | 38.40544 | -90.02987 | 39095 ft | 532 kts | 70° |
| 2026-05-07 15:56 | 38.42685 | -89.93973 | 39096 ft | 534 kts | 70° |
| 2026-05-07 15:56 | 38.44865 | -89.84959 | 39093 ft | 533 kts | 69° |
| 2026-05-07 15:57 | 38.47040 | -89.75970 | 39100 ft | 533 kts | 70° |
| 2026-05-07 15:57 | 38.49206 | -89.66954 | 39086 ft | 534 kts | 69° |
| 2026-05-07 15:58 | 38.51360 | -89.57916 | 39086 ft | 531 kts | 69° |
| 2026-05-07 15:58 | 38.53503 | -89.48900 | 39078 ft | 533 kts | 69° |
| 2026-05-07 15:59 | 38.55637 | -89.39898 | 39083 ft | 533 kts | 69° |
| 2026-05-07 15:59 | 38.57774 | -89.30846 | 39081 ft | 533 kts | 70° |
| 2026-05-07 16:00 | 38.59900 | -89.21797 | 39087 ft | 533 kts | 70° |
| 2026-05-07 16:00 | 38.62020 | -89.12730 | 39085 ft | 534 kts | 70° |
| 2026-05-07 16:01 | 38.64114 | -89.03722 | 39089 ft | 531 kts | 70° |
| 2026-05-07 16:01 | 38.66221 | -88.94638 | 39096 ft | 533 kts | 70° |
| 2026-05-07 16:02 | 38.68315 | -88.85590 | 39089 ft | 533 kts | 70° |
| 2026-05-07 16:02 | 38.70402 | -88.76526 | 39082 ft | 532 kts | 70° |
| 2026-05-07 16:03 | 38.72479 | -88.67482 | 39080 ft | 532 kts | 70° |
| 2026-05-07 16:03 | 38.74560 | -88.58373 | 39090 ft | 533 kts | 70° |
| 2026-05-07 16:04 | 38.76620 | -88.49325 | 39082 ft | 532 kts | 70° |
| 2026-05-07 16:04 | 38.78673 | -88.40266 | 39088 ft | 533 kts | 70° |
| 2026-05-07 16:05 | 38.80739 | -88.31108 | 39090 ft | 533 kts | 71° |
| 2026-05-07 16:05 | 38.82774 | -88.22051 | 39088 ft | 533 kts | 71° |
| 2026-05-07 16:06 | 38.84819 | -88.12928 | 39085 ft | 534 kts | 71° |
| 2026-05-07 16:06 | 38.86862 | -88.03782 | 39081 ft | 534 kts | 71° |
| 2026-05-07 16:07 | 38.88885 | -87.94675 | 39075 ft | 533 kts | 71° |
| 2026-05-07 16:07 | 38.90910 | -87.85519 | 39069 ft | 534 kts | 71° |
| 2026-05-07 16:08 | 38.92921 | -87.76389 | 39078 ft | 534 kts | 71° |
| 2026-05-07 16:08 | 38.94923 | -87.67266 | 39079 ft | 533 kts | 71° |
| 2026-05-07 16:09 | 38.96920 | -87.58130 | 39080 ft | 534 kts | 70° |
| 2026-05-07 16:09 | 38.98924 | -87.48924 | 39081 ft | 535 kts | 71° |
| 2026-05-07 16:10 | 39.00905 | -87.39788 | 39073 ft | 535 kts | 71° |
| 2026-05-07 16:10 | 39.02896 | -87.30571 | 39065 ft | 535 kts | 71° |
| 2026-05-07 16:11 | 39.04876 | -87.21362 | 39065 ft | 537 kts | 71° |
| 2026-05-07 16:11 | 39.06851 | -87.12129 | 39068 ft | 535 kts | 71° |
| 2026-05-07 16:12 | 39.08817 | -87.02887 | 39062 ft | 536 kts | 72° |
| 2026-05-07 16:12 | 39.10779 | -86.93650 | 39067 ft | 536 kts | 71° |
| 2026-05-07 16:13 | 39.12724 | -86.84443 | 39068 ft | 536 kts | 71° |
| 2026-05-07 16:13 | 39.14664 | -86.75211 | 39072 ft | 536 kts | 72° |
| 2026-05-07 16:14 | 39.16605 | -86.65947 | 39073 ft | 537 kts | 71° |
| 2026-05-07 16:14 | 39.18531 | -86.56715 | 39072 ft | 536 kts | 72° |
| 2026-05-07 16:15 | 39.20454 | -86.47461 | 39072 ft | 536 kts | 72° |
| 2026-05-07 16:15 | 39.22378 | -86.38165 | 39070 ft | 539 kts | 72° |
| 2026-05-07 16:16 | 39.24291 | -86.28880 | 39060 ft | 537 kts | 73° |
| 2026-05-07 16:16 | 39.26207 | -86.19534 | 39064 ft | 537 kts | 72° |
| 2026-05-07 16:17 | 39.28093 | -86.10283 | 39058 ft | 538 kts | 72° |
| 2026-05-07 16:17 | 39.30000 | -86.00906 | 39054 ft | 539 kts | 72° |
| 2026-05-07 16:18 | 39.31882 | -85.91615 | 39057 ft | 538 kts | 72° |
| 2026-05-07 16:18 | 39.33766 | -85.82262 | 39056 ft | 539 kts | 73° |
| 2026-05-07 16:19 | 39.35640 | -85.72900 | 39045 ft | 539 kts | 72° |
| 2026-05-07 16:19 | 39.37499 | -85.63576 | 39045 ft | 539 kts | 72° |
| 2026-05-07 16:20 | 39.39357 | -85.54224 | 39038 ft | 540 kts | 73° |
| 2026-05-07 16:20 | 39.41213 | -85.44837 | 39037 ft | 538 kts | 72° |
| 2026-05-07 16:21 | 39.43054 | -85.35483 | 38993 ft | 538 kts | 73° |
| 2026-05-07 16:21 | 39.43962 | -85.30849 | 38552 ft | 535 kts | 73° |
| 2026-05-07 16:21 | 39.44876 | -85.26186 | 37711 ft | 540 kts | 74° |
| 2026-05-07 16:21 | 39.45798 | -85.21474 | 37002 ft | 545 kts | 74° |
| 2026-05-07 16:22 | 39.46724 | -85.16732 | 36297 ft | 543 kts | 73° |
| 2026-05-07 16:22 | 39.47642 | -85.12002 | 35843 ft | 544 kts | 74° |
| 2026-05-07 16:22 | 39.48557 | -85.07278 | 35211 ft | 545 kts | 75° |
| 2026-05-07 16:22 | 39.49478 | -85.02515 | 34563 ft | 545 kts | 75° |
| 2026-05-07 16:23 | 39.50396 | -84.97752 | 33900 ft | 546 kts | 75° |
| 2026-05-07 16:23 | 39.51302 | -84.93044 | 33263 ft | 547 kts | 75° |
| 2026-05-07 16:23 | 39.52221 | -84.88245 | 32652 ft | 546 kts | 75° |
| 2026-05-07 16:23 | 39.53131 | -84.83485 | 32166 ft | 541 kts | 75° |
| 2026-05-07 16:24 | 39.54025 | -84.78809 | 31545 ft | 540 kts | 75° |
| 2026-05-07 16:24 | 39.54916 | -84.74133 | 30938 ft | 538 kts | 75° |
| 2026-05-07 16:24 | 39.55809 | -84.69444 | 30363 ft | 534 kts | 75° |
| 2026-05-07 16:24 | 39.56696 | -84.64770 | 29668 ft | 534 kts | 75° |
| 2026-05-07 16:25 | 39.57569 | -84.60162 | 28950 ft | 532 kts | 75° |
| 2026-05-07 16:25 | 39.58445 | -84.55521 | 28172 ft | 532 kts | 75° |
| 2026-05-07 16:25 | 39.59330 | -84.50833 | 27354 ft | 532 kts | 75° |
| 2026-05-07 16:25 | 39.60200 | -84.46211 | 26505 ft | 532 kts | 75° |
| 2026-05-07 16:26 | 39.61066 | -84.41590 | 25658 ft | 531 kts | 75° |
| 2026-05-07 16:26 | 39.61926 | -84.36993 | 24914 ft | 527 kts | 75° |
| 2026-05-07 16:26 | 39.62780 | -84.32407 | 24333 ft | 519 kts | 75° |
| 2026-05-07 16:26 | 39.63345 | -84.29373 | 23904 ft | 515 kts | 76° |
| 2026-05-07 16:27 | 39.64449 | -84.23427 | 23062 ft | 507 kts | 75° |
| 2026-05-07 16:27 | 39.65269 | -84.19001 | 22409 ft | 501 kts | 75° |
| 2026-05-07 16:27 | 39.66070 | -84.14668 | 21773 ft | 495 kts | 76° |
| 2026-05-07 16:27 | 39.66864 | -84.10363 | 21168 ft | 488 kts | 75° |
| 2026-05-07 16:28 | 39.67712 | -84.06128 | 20502 ft | 483 kts | 72° |
| 2026-05-07 16:28 | 39.68814 | -84.02082 | 19912 ft | 474 kts | 64° |
| 2026-05-07 16:28 | 39.70335 | -83.98370 | 19284 ft | 463 kts | 52° |
| 2026-05-07 16:28 | 39.72403 | -83.95229 | 19055 ft | 448 kts | 39° |
| 2026-05-07 16:29 | 39.74681 | -83.92555 | 19025 ft | 431 kts | 34° |
| 2026-05-07 16:29 | 39.76899 | -83.90159 | 19039 ft | 401 kts | 32° |
| 2026-05-07 16:29 | 39.78997 | -83.87962 | 19029 ft | 376 kts | 31° |
| 2026-05-07 16:29 | 39.81007 | -83.85876 | 19037 ft | 368 kts | 31° |
| 2026-05-07 16:30 | 39.82998 | -83.83809 | 19024 ft | 378 kts | 31° |
| 2026-05-07 16:30 | 39.85109 | -83.81600 | 19018 ft | 402 kts | 32° |
| 2026-05-07 16:30 | 39.87314 | -83.79245 | 19004 ft | 410 kts | 33° |
| 2026-05-07 16:30 | 39.89508 | -83.76847 | 19010 ft | 411 kts | 33° |
| 2026-05-07 16:31 | 39.91668 | -83.74456 | 19005 ft | 410 kts | 34° |
| 2026-05-07 16:31 | 39.93836 | -83.72042 | 19000 ft | 411 kts | 34° |
| 2026-05-07 16:31 | 39.95992 | -83.69634 | 19005 ft | 410 kts | 34° |
| 2026-05-07 16:31 | 39.98152 | -83.67217 | 19004 ft | 410 kts | 34° |
| 2026-05-07 16:32 | 40.00338 | -83.64769 | 19007 ft | 409 kts | 34° |
| 2026-05-07 16:32 | 40.02495 | -83.62354 | 19014 ft | 411 kts | 34° |
| 2026-05-07 16:32 | 40.04665 | -83.59924 | 19001 ft | 411 kts | 34° |
| 2026-05-07 16:32 | 40.06813 | -83.57519 | 18997 ft | 411 kts | 34° |
| 2026-05-07 16:33 | 40.08967 | -83.55104 | 19006 ft | 411 kts | 34° |
| 2026-05-07 16:33 | 40.11147 | -83.52660 | 19002 ft | 409 kts | 34° |
| 2026-05-07 16:33 | 40.13300 | -83.50243 | 19000 ft | 411 kts | 34° |
| 2026-05-07 16:33 | 40.15469 | -83.47807 | 19019 ft | 409 kts | 34° |
| 2026-05-07 16:34 | 40.17633 | -83.45373 | 18998 ft | 409 kts | 34° |
| 2026-05-07 16:34 | 40.19762 | -83.42926 | 19004 ft | 410 kts | 36° |
| 2026-05-07 16:34 | 40.21857 | -83.40376 | 19006 ft | 412 kts | 37° |
| 2026-05-07 16:34 | 40.23927 | -83.37775 | 19008 ft | 412 kts | 38° |
| 2026-05-07 16:35 | 40.25966 | -83.35188 | 19007 ft | 412 kts | 38° |
| 2026-05-07 16:35 | 40.28039 | -83.32557 | 19007 ft | 414 kts | 38° |
| 2026-05-07 16:35 | 40.30106 | -83.29940 | 19003 ft | 411 kts | 38° |
| 2026-05-07 16:35 | 40.32155 | -83.27352 | 19004 ft | 413 kts | 38° |
| 2026-05-07 16:36 | 40.34234 | -83.24734 | 19009 ft | 413 kts | 38° |
| 2026-05-07 16:36 | 40.36300 | -83.22135 | 19001 ft | 411 kts | 38° |
| 2026-05-07 16:36 | 40.38366 | -83.19537 | 19002 ft | 412 kts | 38° |
| 2026-05-07 16:36 | 40.40431 | -83.16946 | 18993 ft | 412 kts | 38° |
| 2026-05-07 16:37 | 40.42500 | -83.14341 | 18995 ft | 412 kts | 38° |
| 2026-05-07 16:37 | 40.44566 | -83.11741 | 18995 ft | 413 kts | 38° |
| 2026-05-07 16:37 | 40.46618 | -83.09156 | 18989 ft | 412 kts | 38° |
| 2026-05-07 16:37 | 40.48681 | -83.06551 | 18835 ft | 406 kts | 38° |
| 2026-05-07 16:38 | 40.50708 | -83.03996 | 18226 ft | 404 kts | 38° |
| 2026-05-07 16:38 | 40.52714 | -83.01476 | 17700 ft | 400 kts | 39° |
| 2026-05-07 16:38 | 40.54707 | -82.98979 | 17204 ft | 395 kts | 39° |
| 2026-05-07 16:38 | 40.56703 | -82.96478 | 16676 ft | 391 kts | 39° |
| 2026-05-07 16:39 | 40.58628 | -82.94066 | 16217 ft | 386 kts | 39° |
| 2026-05-07 16:39 | 40.60558 | -82.91645 | 15688 ft | 382 kts | 39° |
| 2026-05-07 16:39 | 40.62487 | -82.89220 | 15220 ft | 377 kts | 39° |
| 2026-05-07 16:39 | 40.64347 | -82.86879 | 14718 ft | 373 kts | 40° |
| 2026-05-07 16:40 | 40.66227 | -82.84512 | 14226 ft | 368 kts | 40° |
| 2026-05-07 16:40 | 40.68066 | -82.82195 | 13713 ft | 365 kts | 40° |
| 2026-05-07 16:40 | 40.69877 | -82.79913 | 13233 ft | 361 kts | 40° |
| 2026-05-07 16:40 | 40.71667 | -82.77653 | 12759 ft | 356 kts | 40° |
| 2026-05-07 16:41 | 40.73454 | -82.75397 | 12269 ft | 352 kts | 40° |
| 2026-05-07 16:41 | 40.75205 | -82.73185 | 11740 ft | 350 kts | 40° |
| 2026-05-07 16:41 | 40.76940 | -82.70992 | 11247 ft | 346 kts | 40° |
| 2026-05-07 16:41 | 40.78674 | -82.68800 | 10785 ft | 341 kts | 40° |
| 2026-05-07 16:42 | 40.80365 | -82.66658 | 10313 ft | 337 kts | 40° |
| 2026-05-07 16:42 | 40.82055 | -82.64514 | 10016 ft | 331 kts | 40° |
| 2026-05-07 16:42 | 40.83712 | -82.62411 | 9998 ft | 335 kts | 40° |
| 2026-05-07 16:42 | 40.85387 | -82.60287 | 9997 ft | 336 kts | 40° |
| 2026-05-07 16:43 | 40.87075 | -82.58142 | 9995 ft | 335 kts | 40° |
| 2026-05-07 16:43 | 40.88751 | -82.56013 | 9994 ft | 335 kts | 40° |
| 2026-05-07 16:43 | 40.90438 | -82.53866 | 9994 ft | 335 kts | 40° |
| 2026-05-07 16:43 | 40.92102 | -82.51747 | 9988 ft | 336 kts | 40° |
| 2026-05-07 16:44 | 40.93796 | -82.49588 | 9988 ft | 335 kts | 40° |
| 2026-05-07 16:44 | 40.95466 | -82.47459 | 9989 ft | 335 kts | 40° |
| 2026-05-07 16:44 | 40.97147 | -82.45316 | 9992 ft | 335 kts | 40° |
| 2026-05-07 16:44 | 40.98817 | -82.43185 | 9989 ft | 334 kts | 40° |
| 2026-05-07 16:45 | 41.00486 | -82.41055 | 9985 ft | 334 kts | 40° |
| 2026-05-07 16:45 | 41.02149 | -82.38930 | 9983 ft | 334 kts | 40° |
| 2026-05-07 16:45 | 41.03843 | -82.36764 | 9978 ft | 335 kts | 40° |
| 2026-05-07 16:45 | 41.05511 | -82.34624 | 9974 ft | 334 kts | 41° |
| 2026-05-07 16:46 | 41.07160 | -82.32471 | 9971 ft | 325 kts | 42° |
| 2026-05-07 16:46 | 41.08696 | -82.30428 | 9969 ft | 307 kts | 42° |
| 2026-05-07 16:46 | 41.10164 | -82.28466 | 9960 ft | 291 kts | 42° |
| 2026-05-07 16:46 | 41.11583 | -82.26577 | 9966 ft | 289 kts | 41° |
| 2026-05-07 16:47 | 41.12999 | -82.24705 | 9970 ft | 290 kts | 41° |
| 2026-05-07 16:47 | 41.14464 | -82.22772 | 9973 ft | 290 kts | 41° |
| 2026-05-07 16:47 | 41.15890 | -82.20888 | 9963 ft | 289 kts | 41° |
| 2026-05-07 16:47 | 41.17315 | -82.19012 | 9972 ft | 290 kts | 41° |
| 2026-05-07 16:48 | 41.18739 | -82.17137 | 9974 ft | 290 kts | 41° |
| 2026-05-07 16:48 | 41.20166 | -82.15251 | 9966 ft | 290 kts | 41° |
| 2026-05-07 16:48 | 41.21600 | -82.13348 | 9967 ft | 290 kts | 41° |
| 2026-05-07 16:48 | 41.23018 | -82.11465 | 9969 ft | 289 kts | 42° |
| 2026-05-07 16:49 | 41.24235 | -82.09334 | 9978 ft | 295 kts | 57° |
| 2026-05-07 16:49 | 41.25192 | -82.06898 | 9977 ft | 295 kts | 62° |
| 2026-05-07 16:49 | 41.26084 | -82.04452 | 9976 ft | 295 kts | 62° |
| 2026-05-07 16:49 | 41.26975 | -82.02001 | 9975 ft | 295 kts | 62° |
| 2026-05-07 16:50 | 41.27883 | -81.99519 | 9974 ft | 296 kts | 62° |
| 2026-05-07 16:50 | 41.28779 | -81.97073 | 9975 ft | 295 kts | 62° |
| 2026-05-07 16:50 | 41.29674 | -81.94628 | 9976 ft | 296 kts | 62° |
| 2026-05-07 16:50 | 41.30571 | -81.92177 | 9974 ft | 295 kts | 62° |
| 2026-05-07 16:51 | 41.31471 | -81.89709 | 9971 ft | 296 kts | 62° |
| 2026-05-07 16:51 | 41.32369 | -81.87253 | 9971 ft | 296 kts | 62° |
| 2026-05-07 16:51 | 41.33273 | -81.84789 | 9975 ft | 296 kts | 62° |
| 2026-05-07 16:51 | 41.34210 | -81.82388 | 9971 ft | 295 kts | 56° |
| 2026-05-07 16:52 | 41.35380 | -81.80147 | 9969 ft | 293 kts | 49° |
| 2026-05-07 16:52 | 41.36679 | -81.78078 | 9960 ft | 286 kts | 44° |
| 2026-05-07 16:52 | 41.38017 | -81.76207 | 9803 ft | 276 kts | 42° |
| 2026-05-07 16:52 | 41.39350 | -81.74410 | 9663 ft | 267 kts | 41° |
| 2026-05-07 16:53 | 41.40633 | -81.72678 | 9428 ft | 263 kts | 41° |
| 2026-05-07 16:53 | 41.41915 | -81.70942 | 9140 ft | 261 kts | 41° |
| 2026-05-07 16:53 | 41.43185 | -81.69226 | 8847 ft | 259 kts | 41° |
| 2026-05-07 16:53 | 41.44435 | -81.67544 | 8558 ft | 257 kts | 41° |
| 2026-05-07 16:54 | 41.45689 | -81.65859 | 8287 ft | 254 kts | 41° |
| 2026-05-07 16:54 | 41.46905 | -81.64221 | 8281 ft | 240 kts | 41° |
| 2026-05-07 16:54 | 41.48048 | -81.62672 | 8219 ft | 229 kts | 41° |
| 2026-05-07 16:54 | 41.49144 | -81.61182 | 8009 ft | 222 kts | 41° |
| 2026-05-07 16:55 | 41.50222 | -81.59714 | 7552 ft | 226 kts | 41° |
| 2026-05-07 16:55 | 41.51335 | -81.58216 | 7147 ft | 225 kts | 41° |
| 2026-05-07 16:55 | 41.52422 | -81.56763 | 6962 ft | 214 kts | 41° |
| 2026-05-07 16:55 | 41.53419 | -81.55419 | 6964 ft | 196 kts | 41° |
| 2026-05-07 16:56 | 41.54331 | -81.54175 | 6957 ft | 176 kts | 40° |
| 2026-05-07 16:56 | 41.55331 | -81.53475 | 6723 ft | 156 kts | 356° |
| 2026-05-07 16:56 | 41.56361 | -81.55325 | 5981 ft | 142 kts | 268° |
| 2026-05-07 16:57 | 41.56346 | -81.56651 | 5622 ft | 142 kts | 271° |
| 2026-05-07 16:57 | 41.56284 | -81.57953 | 5277 ft | 142 kts | 263° |
| 2026-05-07 16:57 | 41.56112 | -81.59254 | 4955 ft | 141 kts | 261° |
| 2026-05-07 16:57 | 41.55941 | -81.60527 | 4600 ft | 144 kts | 261° |
| 2026-05-07 16:58 | 41.55612 | -81.61841 | 4060 ft | 158 kts | 240° |
| 2026-05-07 16:58 | 41.54916 | -81.62952 | 3732 ft | 155 kts | 233° |
| 2026-05-07 16:58 | 41.54268 | -81.64021 | 3568 ft | 142 kts | 235° |
| 2026-05-07 16:58 | 41.53663 | -81.65002 | 3406 ft | 132 kts | 234° |
| 2026-05-07 16:59 | 41.53093 | -81.65909 | 3234 ft | 123 kts | 234° |
| 2026-05-07 16:59 | 41.52550 | -81.66779 | 3011 ft | 120 kts | 234° |
| 2026-05-07 16:59 | 41.52021 | -81.67620 | 2949 ft | 119 kts | 234° |
| 2026-05-07 16:59 | 41.51473 | -81.68490 | 2975 ft | 122 kts | 234° |
| 2026-05-07 17:00 | 41.50928 | -81.69353 | 2974 ft | 122 kts | 234° |
| 2026-05-07 17:00 | 41.50383 | -81.70219 | 2973 ft | 121 kts | 234° |
| 2026-05-07 17:00 | 41.49838 | -81.71081 | 2974 ft | 122 kts | 234° |
| 2026-05-07 17:00 | 41.49291 | -81.71949 | 2972 ft | 122 kts | 234° |
| 2026-05-07 17:01 | 41.48744 | -81.72817 | 2972 ft | 122 kts | 234° |
| 2026-05-07 17:01 | 41.48196 | -81.73683 | 2851 ft | 123 kts | 234° |
| 2026-05-07 17:01 | 41.47644 | -81.74558 | 2684 ft | 122 kts | 234° |
| 2026-05-07 17:01 | 41.47104 | -81.75415 | 2515 ft | 122 kts | 234° |
| 2026-05-07 17:02 | 41.46549 | -81.76291 | 2346 ft | 122 kts | 233° |
| 2026-05-07 17:02 | 41.46005 | -81.77149 | 2181 ft | 122 kts | 234° |
| 2026-05-07 17:02 | 41.45451 | -81.78025 | 2011 ft | 122 kts | 233° |
| 2026-05-07 17:02 | 41.44906 | -81.78886 | 1846 ft | 122 kts | 234° |
| 2026-05-07 17:03 | 41.44358 | -81.79753 | 1681 ft | 122 kts | 234° |
| 2026-05-07 17:03 | 41.43816 | -81.80609 | 1517 ft | 122 kts | 233° |
| 2026-05-07 17:03 | 41.43265 | -81.81475 | 1357 ft | 122 kts | 233° |
| 2026-05-07 17:03 | 41.42719 | -81.82339 | 1188 ft | 122 kts | 233° |
| 2026-05-07 17:04 | 41.42168 | -81.83207 | 1025 ft | 122 kts | 233° |
| 2026-05-07 17:04 | 41.41623 | -81.84071 | 864 ft | 122 kts | 233° |
| 2026-05-07 17:04 | 41.41110 | -81.84895 | 790 ft | 91 kts | 235° |
| 2026-05-07 17:04 | 41.40944 | -81.85152 | 788 ft | 17 kts | 228° |
| 2026-05-07 17:05 | 41.40855 | -81.85274 | 786 ft | 18 kts | 226° |
| 2026-05-07 17:05 | 41.40735 | -81.85358 | 785 ft | 18 kts | 181° |
| 2026-05-07 17:05 | 41.40699 | -81.85290 | 785 ft | 12 kts | 49° |
| 2026-05-07 17:05 | 41.40767 | -81.85189 | 787 ft | 22 kts | 49° |
| 2026-05-07 17:06 | 41.40877 | -81.85015 | 789 ft | 24 kts | 50° |
| 2026-05-07 17:06 | 41.40986 | -81.84843 | 790 ft | 23 kts | 50° |
| 2026-05-07 17:06 | 41.41092 | -81.84676 | 791 ft | 21 kts | 50° |
| 2026-05-07 17:06 | 41.41177 | -81.84541 | 791 ft | 18 kts | 50° |
| 2026-05-07 17:07 | 41.41250 | -81.84418 | 792 ft | 12 kts | 65° |
| 2026-05-07 17:07 | 41.41245 | -81.84307 | 793 ft | 12 kts | 85° |
| 2026-05-07 17:07 | 41.41253 | -81.84218 | 793 ft | 3 kts | 82° |
| 2026-05-07 17:07 | 41.41263 | -81.84134 | 793 ft | 16 kts | 79° |
| 2026-05-07 17:08 | 41.41236 | -81.84057 | 794 ft | 0 kts | 239° |
| 2026-05-07 17:08 | 41.41218 | -81.84059 | 794 ft | 5 kts | 177° |
| 2026-05-07 17:08 | 41.41190 | -81.84062 | 794 ft | 0 kts | 190° |
| 2026-05-07 17:08 | 41.41179 | -81.84064 | 794 ft | 1 kts | 191° |
| 2026-05-07 17:09 | 41.41178 | -81.84065 | 794 ft | 0 kts | 191° |